createdAt,value
2022-08-25T00:01:24.688Z,101127.66
2022-08-25T00:03:54.245Z,101134.94
2022-08-25T00:06:21.522Z,101138.09
2022-08-25T00:08:48.873Z,101141.28
2022-08-25T00:11:24.162Z,101142.13
2022-08-25T00:13:54.757Z,101137.47
2022-08-25T00:16:22.565Z,101138.22
2022-08-25T00:18:53.416Z,101134.47
2022-08-25T00:21:20.167Z,101133.88
2022-08-25T00:23:46.682Z,101137.47
2022-08-25T00:26:14.985Z,101134.69
2022-08-25T00:28:41.836Z,101143.81
2022-08-25T00:31:12.935Z,101140.72
2022-08-25T00:33:39.404Z,101142.91
2022-08-25T00:36:06.422Z,101143.72
2022-08-25T00:38:33.089Z,101145.63
2022-08-25T00:41:08.518Z,101148.50
2022-08-25T00:43:41.053Z,101140.19
2022-08-25T00:46:09.607Z,101139.78
2022-08-25T00:48:38.703Z,101145.00
2022-08-25T00:51:09.839Z,101139.38
2022-08-25T00:53:36.773Z,101140.16
2022-08-25T00:56:04.133Z,101143.75
2022-08-25T00:58:32.358Z,101144.00
2022-08-25T01:00:59.736Z,101151.72
2022-08-25T01:03:33.212Z,101142.50
2022-08-25T01:06:04.291Z,101149.63
2022-08-25T01:08:33.092Z,101139.78
2022-08-25T01:11:04.842Z,101145.63
2022-08-25T01:13:42.690Z,101151.72
2022-08-25T01:16:09.327Z,101139.94
2022-08-25T01:18:47.783Z,101143.47
2022-08-25T01:21:15.186Z,101150.00
2022-08-25T01:23:42.102Z,101151.19
2022-08-25T01:26:15.815Z,101140.38
2022-08-25T01:29:04.345Z,101139.94
2022-08-25T01:31:32.340Z,101143.03
2022-08-25T01:33:59.513Z,101135.94
2022-08-25T01:36:28.320Z,101129.63
2022-08-25T01:38:55.161Z,101130.69
2022-08-25T01:41:32.018Z,101134.19
2022-08-25T01:43:58.682Z,101138.25
2022-08-25T01:46:25.676Z,101141.19
2022-08-25T01:48:52.292Z,101136.94
2022-08-25T01:51:25.175Z,101133.69
2022-08-25T01:53:51.701Z,101134.16
2022-08-25T01:56:18.291Z,101135.03
2022-08-25T01:58:48.872Z,101143.47
2022-08-25T02:01:22.297Z,101140.25
2022-08-25T02:03:52.657Z,101138.78
2022-08-25T02:06:27.681Z,101134.97
2022-08-25T02:09:01.082Z,101137.63
2022-08-25T02:11:28.697Z,101141.00
2022-08-25T02:13:55.342Z,101137.59
2022-08-25T02:16:29.074Z,101134.22
2022-08-25T02:18:56.984Z,101133.09
2022-08-25T02:21:23.473Z,101128.50
2022-08-25T02:23:50.060Z,101141.00
2022-08-25T02:26:19.062Z,101131.66
2022-08-25T02:28:47.868Z,101132.81
2022-08-25T02:31:15.479Z,101125.78
2022-08-25T02:33:42.032Z,101133.38
2022-08-25T02:36:09.063Z,101128.09
2022-08-25T02:38:36.641Z,101124.00
2022-08-25T02:41:13.493Z,101124.84
2022-08-25T02:43:41.635Z,101116.78
2022-08-25T02:46:08.936Z,101123.88
2022-08-25T02:48:36.725Z,101120.09
2022-08-25T02:51:05.815Z,101115.09
2022-08-25T02:53:33.384Z,101115.28
2022-08-25T02:55:59.911Z,101109.66
2022-08-25T02:58:26.392Z,101119.84
2022-08-25T03:00:53.071Z,101117.94
2022-08-25T03:03:20.660Z,101119.03
2022-08-25T03:05:47.966Z,101116.19
2022-08-25T03:08:15.056Z,101107.59
2022-08-25T03:10:41.616Z,101113.22
2022-08-25T03:13:08.122Z,101109.81
2022-08-25T03:15:37.769Z,101109.97
2022-08-25T03:18:05.923Z,101106.69
2022-08-25T03:20:35.668Z,101109.81
2022-08-25T03:23:03.039Z,101108.44
2022-08-25T03:25:48.077Z,101106.38
2022-08-25T03:28:14.822Z,101104.50
2022-08-25T03:30:41.990Z,101102.13
2022-08-25T03:33:09.248Z,101102.91
2022-08-25T03:35:35.763Z,101102.66
2022-08-25T03:38:02.919Z,101093.88
2022-08-25T03:40:29.961Z,101100.22
2022-08-25T03:42:56.811Z,101099.28
2022-08-25T03:45:24.829Z,101096.81
2022-08-25T03:47:52.398Z,101097.97
2022-08-25T03:50:20.679Z,101096.25
2022-08-25T03:52:52.294Z,101098.22
2022-08-25T03:55:18.768Z,101102.53
2022-08-25T03:57:45.192Z,101101.97
2022-08-25T04:00:12.376Z,101111.03
2022-08-25T04:02:40.009Z,101110.41
2022-08-25T04:05:07.235Z,101105.94
2022-08-25T04:07:33.814Z,101116.88
2022-08-25T04:10:00.302Z,101117.41
2022-08-25T04:12:26.782Z,101117.19
2022-08-25T04:14:53.282Z,101120.75
2022-08-25T04:17:19.833Z,101116.31
2022-08-25T04:19:46.280Z,101120.41
2022-08-25T04:22:13.240Z,101130.81
2022-08-25T04:24:40.114Z,101125.19
2022-08-25T04:27:06.597Z,101129.13
2022-08-25T04:29:34.029Z,101139.34
2022-08-25T04:32:00.591Z,101127.28
2022-08-25T04:34:29.503Z,101130.28
2022-08-25T04:37:02.500Z,101135.84
2022-08-25T04:39:29.143Z,101126.91
2022-08-25T04:41:55.909Z,101126.16
2022-08-25T04:44:22.442Z,101121.25
2022-08-25T04:46:49.709Z,101114.63
2022-08-25T04:49:16.241Z,101121.34
2022-08-25T04:51:42.944Z,101110.53
2022-08-25T04:54:13.057Z,101112.72
2022-08-25T04:56:41.416Z,101104.06
2022-08-25T04:59:13.727Z,101103.72
2022-08-25T05:01:42.301Z,101110.78
2022-08-25T05:04:14.714Z,101106.75
2022-08-25T05:06:54.842Z,101104.84
2022-08-25T05:09:21.783Z,101108.03
2022-08-25T05:11:48.633Z,101104.66
2022-08-25T05:14:18.142Z,101111.25
2022-08-25T05:16:46.293Z,101113.81
2022-08-25T05:19:13.093Z,101109.47
2022-08-25T05:21:39.814Z,101108.28
2022-08-25T05:24:07.717Z,101119.84
2022-08-25T05:26:36.599Z,101110.88
2022-08-25T05:29:04.973Z,101114.84
2022-08-25T05:31:32.739Z,101122.22
2022-08-25T05:34:00.397Z,101108.56
2022-08-25T05:36:28.003Z,101108.34
2022-08-25T05:38:54.559Z,101107.03
2022-08-25T05:41:25.182Z,101107.59
2022-08-25T05:43:52.162Z,101114.53
2022-08-25T05:46:20.059Z,101109.53
2022-08-25T05:48:47.716Z,101097.75
2022-08-25T05:51:15.035Z,101107.56
2022-08-25T05:53:44.729Z,101098.88
2022-08-25T05:56:11.911Z,101102.09
2022-08-25T05:58:38.394Z,101103.22
2022-08-25T06:01:24.608Z,101109.59
2022-08-25T06:03:54.262Z,101094.06
2022-08-25T06:06:23.149Z,101101.94
2022-08-25T06:08:49.879Z,101090.97
2022-08-25T06:11:16.439Z,101101.34
2022-08-25T06:13:43.458Z,101098.31
2022-08-25T06:16:10.122Z,101097.91
2022-08-25T06:18:36.640Z,101100.03
2022-08-25T06:21:13.654Z,101096.22
2022-08-25T06:23:40.725Z,101096.19
2022-08-25T06:26:10.030Z,101095.38
2022-08-25T06:28:39.689Z,101093.25
2022-08-25T06:31:06.463Z,101100.69
2022-08-25T06:33:33.341Z,101093.75
2022-08-25T06:35:59.892Z,101107.34
2022-08-25T06:38:27.097Z,101092.09
2022-08-25T06:40:53.915Z,101086.66
2022-08-25T06:43:21.774Z,101087.34
2022-08-25T06:45:48.579Z,101090.88
2022-08-25T06:48:15.610Z,101103.38
2022-08-25T06:50:42.814Z,101100.88
2022-08-25T06:53:09.416Z,101096.50
2022-08-25T06:55:36.812Z,101099.41
2022-08-25T06:58:04.922Z,101100.59
2022-08-25T07:00:32.904Z,101109.19
2022-08-25T07:03:01.128Z,101098.56
2022-08-25T07:05:40.913Z,101095.06
2022-08-25T07:08:11.603Z,101084.13
2022-08-25T07:10:38.133Z,101082.69
2022-08-25T07:13:04.576Z,101079.28
2022-08-25T07:15:31.084Z,101081.44
2022-08-25T07:17:57.641Z,101077.47
2022-08-25T07:22:52.027Z,101082.13
2022-08-25T07:25:18.708Z,101077.88
2022-08-25T07:27:45.264Z,101073.78
2022-08-25T07:30:11.770Z,101074.16
2022-08-25T07:32:38.342Z,101072.78
2022-08-25T07:35:19.071Z,101068.34
2022-08-25T07:37:58.041Z,101063.03
2022-08-25T07:40:24.942Z,101067.16
2022-08-25T07:42:54.669Z,101057.63
2022-08-25T07:45:30.051Z,101057.16
2022-08-25T07:48:06.819Z,101058.72
2022-08-25T07:50:34.395Z,101061.75
2022-08-25T07:53:01.017Z,101057.72
2022-08-25T07:55:28.450Z,101058.88
2022-08-25T07:57:57.328Z,101063.31
2022-08-25T08:00:27.643Z,101049.56
2022-08-25T08:02:54.958Z,101049.22
2022-08-25T08:05:23.997Z,101064.16
2022-08-25T08:07:51.031Z,101055.19
2022-08-25T08:13:07.133Z,101050.81
2022-08-25T08:15:34.953Z,101053.44
2022-08-25T08:18:02.021Z,101045.81
2022-08-25T08:20:32.098Z,101048.13
2022-08-25T08:23:09.443Z,101052.63
2022-08-25T08:25:36.062Z,101051.47
2022-08-25T08:28:02.906Z,101058.84
2022-08-25T08:30:29.521Z,101048.47
2022-08-25T08:33:12.419Z,101044.69
2022-08-25T08:35:41.162Z,101051.44
2022-08-25T08:38:14.687Z,101053.06
2022-08-25T08:41:23.091Z,101047.81
2022-08-25T08:43:56.422Z,101045.16
2022-08-25T08:46:26.010Z,101050.06
2022-08-25T08:49:04.530Z,101048.88
2022-08-25T08:51:35.911Z,101052.09
2022-08-25T08:54:15.011Z,101043.34
2022-08-25T08:56:48.166Z,101036.00
2022-08-25T08:59:30.339Z,101043.09
2022-08-25T09:02:02.686Z,101021.91
2022-08-25T09:04:37.648Z,101030.38
2022-08-25T09:07:12.064Z,101030.44
2022-08-25T09:09:41.914Z,101033.28
2022-08-25T09:12:19.562Z,101028.41
2022-08-25T09:14:58.325Z,101031.19
2022-08-25T09:17:59.087Z,101013.34
2022-08-25T09:21:05.398Z,101028.84
2022-08-25T09:23:58.326Z,101021.88
2022-08-25T09:26:36.295Z,101022.56
2022-08-25T09:29:07.304Z,101016.31
2022-08-25T09:31:43.583Z,101018.53
2022-08-25T09:34:18.774Z,101013.91
2022-08-25T09:36:48.398Z,101013.84
2022-08-25T09:39:15.410Z,101008.38
2022-08-25T09:41:51.614Z,101006.13
2022-08-25T09:44:25.978Z,101015.19
2022-08-25T09:47:17.267Z,101017.75
2022-08-25T09:49:49.093Z,101009.25
2022-08-25T09:52:25.388Z,101012.13
2022-08-25T09:54:53.816Z,101008.69
2022-08-25T09:57:33.635Z,101006.22
2022-08-25T10:00:15.099Z,101006.00
2022-08-25T10:02:43.940Z,101002.41
2022-08-25T10:05:23.717Z,101001.03
2022-08-25T10:07:59.134Z,100996.53
2022-08-25T10:10:52.898Z,100990.91
2022-08-25T10:13:23.598Z,100996.97
2022-08-25T10:16:25.080Z,100985.59
2022-08-25T10:19:00.963Z,100987.41
2022-08-25T10:21:27.432Z,100989.91
2022-08-25T10:23:55.958Z,100983.50
2022-08-25T10:26:34.941Z,100973.91
2022-08-25T10:29:30.958Z,100973.25
2022-08-25T10:32:18.689Z,100963.50
2022-08-25T10:34:51.623Z,100953.03
2022-08-25T10:37:43.910Z,100945.91
2022-08-25T10:40:28.704Z,100948.03
2022-08-25T10:43:07.399Z,100936.25
2022-08-25T10:46:03.457Z,100943.19
2022-08-25T10:48:50.604Z,100934.00
2022-08-25T10:51:39.135Z,100929.66
2022-08-25T10:54:27.501Z,100925.91
2022-08-25T10:57:09.098Z,100930.03
2022-08-25T11:00:05.909Z,100919.75
2022-08-25T11:02:41.376Z,100913.66
2022-08-25T11:05:16.982Z,100902.91
2022-08-25T11:07:58.408Z,100904.47
2022-08-25T11:11:24.272Z,100903.22
2022-08-25T11:14:11.139Z,100904.72
2022-08-25T11:16:57.412Z,100916.31
2022-08-25T11:19:33.777Z,100894.50
2022-08-25T11:22:11.687Z,100891.59
2022-08-25T11:25:16.827Z,100896.84
2022-08-25T11:28:03.610Z,100880.78
2022-08-25T11:30:30.367Z,100892.91
2022-08-25T11:32:57.861Z,100887.53
2022-08-25T11:35:42.439Z,100884.66
2022-08-25T11:38:48.116Z,100872.66
2022-08-25T11:41:53.255Z,100870.59
2022-08-25T11:44:45.625Z,100864.72
2022-08-25T11:47:55.387Z,100857.72
2022-08-25T11:50:30.080Z,100871.09
2022-08-25T11:53:17.912Z,100870.28
2022-08-25T11:55:53.667Z,100860.91
2022-08-25T11:58:50.996Z,100857.00
2022-08-25T12:01:39.223Z,100860.53
2022-08-25T12:04:44.747Z,100857.59
2022-08-25T12:07:14.867Z,100843.09
2022-08-25T12:09:50.088Z,100844.84
2022-08-25T12:12:31.969Z,100841.00
2022-08-25T12:15:20.417Z,100829.16
2022-08-25T12:18:11.525Z,100842.97
2022-08-25T12:20:53.403Z,100829.41
2022-08-25T12:23:31.914Z,100829.13
2022-08-25T12:26:04.077Z,100818.38
2022-08-25T12:29:07.546Z,100819.63
2022-08-25T12:31:52.787Z,100815.34
2022-08-25T12:34:26.988Z,100809.13
2022-08-25T12:37:13.250Z,100822.66
2022-08-25T12:39:50.821Z,100815.66
2022-08-25T12:42:39.716Z,100808.59
2022-08-25T12:45:21.158Z,100811.41
2022-08-25T12:48:25.275Z,100801.06
2022-08-25T12:51:19.559Z,100799.75
2022-08-25T12:54:10.914Z,100799.03
2022-08-25T12:56:47.742Z,100802.13
2022-08-25T12:59:32.781Z,100802.50
2022-08-25T13:02:52.162Z,100792.94
2022-08-25T13:05:37.607Z,100781.91
2022-08-25T13:08:22.707Z,100789.31
2022-08-25T13:11:04.667Z,100781.84
2022-08-25T13:13:49.096Z,100774.19
2022-08-25T13:16:27.079Z,100767.81
2022-08-25T13:18:59.141Z,100753.97
2022-08-25T13:21:30.617Z,100753.75
2022-08-25T13:24:04.681Z,100765.59
2022-08-25T13:26:48.499Z,100756.00
2022-08-25T13:29:27.743Z,100754.81
2022-08-25T13:31:58.764Z,100752.81
2022-08-25T13:35:12.527Z,100743.94
2022-08-25T13:37:40.777Z,100749.38
2022-08-25T13:40:10.197Z,100743.09
2022-08-25T13:42:43.658Z,100738.91
2022-08-25T13:45:17.171Z,100731.69
2022-08-25T13:47:45.598Z,100729.16
2022-08-25T13:50:17.440Z,100726.28
2022-08-25T13:52:58.902Z,100725.06
2022-08-25T13:55:50.769Z,100732.38
2022-08-25T13:58:24.707Z,100722.56
2022-08-25T14:01:48.635Z,100728.56
2022-08-25T14:04:50.680Z,100715.38
2022-08-25T14:07:21.113Z,100711.81
2022-08-25T14:10:00.134Z,100709.34
2022-08-25T14:12:36.498Z,100715.19
2022-08-25T14:15:11.608Z,100712.81
2022-08-25T14:17:41.908Z,100705.38
2022-08-25T14:20:20.319Z,100701.09
2022-08-25T14:22:47.075Z,100709.06
2022-08-25T14:25:13.613Z,100693.91
2022-08-25T14:28:06.831Z,100698.41
2022-08-25T14:30:34.704Z,100698.13
2022-08-25T14:33:03.937Z,100702.22
2022-08-25T14:35:31.477Z,100701.63
2022-08-25T14:37:58.263Z,100686.56
2022-08-25T14:40:24.891Z,100696.88
2022-08-25T14:42:51.489Z,100685.31
2022-08-25T14:45:19.255Z,100693.63
2022-08-25T14:47:49.732Z,100681.34
2022-08-25T14:50:20.177Z,100683.56
2022-08-25T14:52:48.223Z,100673.94
2022-08-25T14:55:31.276Z,100683.28
2022-08-25T14:57:58.532Z,100679.03
2022-08-25T15:00:26.052Z,100665.84
2022-08-25T15:02:53.146Z,100667.72
2022-08-25T15:05:24.663Z,100668.78
2022-08-25T15:08:12.280Z,100666.59
2022-08-25T15:10:40.165Z,100664.22
2022-08-25T15:13:07.266Z,100664.72
2022-08-25T15:15:38.065Z,100654.66
2022-08-25T15:18:05.480Z,100657.97
2022-08-25T15:20:32.827Z,100652.38
2022-08-25T15:22:59.764Z,100658.94
2022-08-25T15:25:26.619Z,100657.41
2022-08-25T15:27:54.111Z,100649.38
2022-08-25T15:30:20.858Z,100647.91
2022-08-25T15:32:57.515Z,100657.09
2022-08-25T15:35:24.446Z,100655.44
2022-08-25T15:37:55.691Z,100659.16
2022-08-25T15:40:22.338Z,100643.31
2022-08-25T15:42:48.886Z,100639.72
2022-08-25T15:45:15.510Z,100635.97
2022-08-25T15:47:42.258Z,100634.84
2022-08-25T15:50:15.566Z,100637.81
2022-08-25T15:52:46.336Z,100631.97
2022-08-25T15:55:14.651Z,100638.03
2022-08-25T15:57:41.141Z,100635.84
2022-08-25T16:00:11.957Z,100632.59
2022-08-25T16:02:40.457Z,100630.97
2022-08-25T16:05:08.913Z,100626.84
2022-08-25T16:07:36.139Z,100629.59
2022-08-25T16:10:04.040Z,100623.47
2022-08-25T16:12:31.619Z,100618.00
2022-08-25T16:14:58.298Z,100612.22
2022-08-25T16:17:25.175Z,100608.69
2022-08-25T16:19:51.645Z,100610.41
2022-08-25T16:22:18.112Z,100610.75
2022-08-25T16:24:45.026Z,100608.13
2022-08-25T16:27:12.895Z,100604.13
2022-08-25T16:29:41.926Z,100599.03
2022-08-25T16:32:10.395Z,100607.06
2022-08-25T16:34:37.429Z,100590.69
2022-08-25T16:37:06.240Z,100594.13
2022-08-25T16:39:32.976Z,100593.38
2022-08-25T16:41:59.514Z,100592.72
2022-08-25T16:44:26.077Z,100594.03
2022-08-25T16:46:54.608Z,100603.50
2022-08-25T16:49:24.459Z,100589.69
2022-08-25T16:51:52.236Z,100594.56
2022-08-25T16:54:48.684Z,100594.97
2022-08-25T16:57:15.560Z,100594.41
2022-08-25T16:59:42.615Z,100589.19
2022-08-25T17:02:10.542Z,100587.91
2022-08-25T17:04:37.213Z,100591.47
2022-08-25T17:07:04.598Z,100595.50
2022-08-25T17:09:31.727Z,100605.91
2022-08-25T17:11:58.233Z,100598.97
2022-08-25T17:14:25.391Z,100604.03
2022-08-25T17:16:55.046Z,100597.00
2022-08-25T17:19:23.830Z,100597.34
2022-08-25T17:21:52.144Z,100600.97
2022-08-25T17:24:18.903Z,100590.59
2022-08-25T17:26:49.756Z,100589.31
2022-08-25T17:29:17.997Z,100594.72
2022-08-25T17:31:46.270Z,100593.22
2022-08-25T17:34:16.507Z,100597.50
2022-08-25T17:36:44.298Z,100594.06
2022-08-25T17:39:12.797Z,100595.41
2022-08-25T17:41:41.740Z,100590.59
2022-08-25T17:44:08.219Z,100587.66
2022-08-25T17:46:34.868Z,100588.47
2022-08-25T17:49:01.502Z,100598.78
2022-08-25T17:51:31.780Z,100593.72
2022-08-25T17:53:58.729Z,100591.09
2022-08-25T17:56:27.389Z,100593.41
2022-08-25T17:58:55.600Z,100592.06
2022-08-25T18:01:25.516Z,100596.91
2022-08-25T18:03:52.952Z,100601.22
2022-08-25T18:06:21.142Z,100606.53
2022-08-25T18:08:51.693Z,100601.81
2022-08-25T18:11:21.659Z,100616.50
2022-08-25T18:13:48.114Z,100614.09
2022-08-25T18:16:17.213Z,100614.94
2022-08-25T18:18:44.580Z,100614.09
2022-08-25T18:21:16.420Z,100622.94
2022-08-25T18:23:43.090Z,100616.19
2022-08-25T18:26:12.866Z,100619.97
2022-08-25T18:28:40.044Z,100617.47
2022-08-25T18:31:11.945Z,100622.28
2022-08-25T18:33:41.722Z,100621.88
2022-08-25T18:36:09.166Z,100628.13
2022-08-25T18:38:57.983Z,100619.72
2022-08-25T18:41:26.819Z,100629.63
2022-08-25T18:43:53.439Z,100627.53
2022-08-25T18:46:22.753Z,100632.19
2022-08-25T18:48:52.787Z,100625.44
2022-08-25T18:51:19.540Z,100626.72
2022-08-25T18:53:51.085Z,100630.91
2022-08-25T18:56:21.742Z,100636.78
2022-08-25T18:58:48.441Z,100635.31
2022-08-25T19:01:17.054Z,100637.41
2022-08-25T19:03:45.063Z,100636.28
2022-08-25T19:06:12.120Z,100643.09
2022-08-25T19:08:41.803Z,100643.06
2022-08-25T19:11:09.893Z,100651.28
2022-08-25T19:13:37.386Z,100648.31
2022-08-25T19:16:20.697Z,100636.72
2022-08-25T19:18:48.888Z,100642.66
2022-08-25T19:21:20.545Z,100638.75
2022-08-25T19:23:50.260Z,100651.78
2022-08-25T19:26:17.956Z,100639.22
2022-08-25T19:28:49.024Z,100648.91
2022-08-25T19:31:18.246Z,100647.16
2022-08-25T19:33:46.009Z,100651.97
2022-08-25T19:36:14.074Z,100645.41
2022-08-25T19:38:40.790Z,100656.19
2022-08-25T19:41:09.034Z,100652.56
2022-08-25T19:43:55.735Z,100648.38
2022-08-25T19:46:35.520Z,100649.06
2022-08-25T19:49:07.948Z,100654.63
2022-08-25T19:51:38.848Z,100647.59
2022-08-25T19:54:06.826Z,100656.06
2022-08-25T19:56:36.337Z,100646.97
2022-08-25T19:59:03.640Z,100652.22
2022-08-25T20:01:30.192Z,100656.00
2022-08-25T20:03:57.011Z,100655.28
2022-08-25T20:06:23.973Z,100658.44
2022-08-25T20:09:00.347Z,100654.28
2022-08-25T20:11:28.886Z,100648.06
2022-08-25T20:13:59.272Z,100649.97
2022-08-25T20:16:28.403Z,100657.13
2022-08-25T20:18:55.002Z,100649.72
2022-08-25T20:21:21.503Z,100645.22
2022-08-25T20:24:07.107Z,100654.22
2022-08-25T20:26:33.602Z,100654.34
2022-08-25T20:29:00.050Z,100646.97
2022-08-25T20:31:26.542Z,100654.41
2022-08-25T20:33:54.083Z,100664.44
2022-08-25T20:36:26.790Z,100654.84
2022-08-25T20:38:53.316Z,100658.31
2022-08-25T20:41:19.761Z,100659.84
2022-08-25T20:43:46.460Z,100656.22
2022-08-25T20:46:16.205Z,100657.34
2022-08-25T20:48:44.287Z,100660.19
2022-08-25T20:51:13.080Z,100667.72
2022-08-25T20:53:42.374Z,100660.56
2022-08-25T20:56:14.691Z,100661.88
2022-08-25T20:58:42.596Z,100654.28
2022-08-25T21:01:13.079Z,100654.19
2022-08-25T21:03:44.336Z,100663.00
2022-08-25T21:06:14.254Z,100657.63
2022-08-25T21:08:45.143Z,100653.22
2022-08-25T21:11:18.054Z,100660.00
2022-08-25T21:13:45.813Z,100653.19
2022-08-25T21:16:12.397Z,100655.75
2022-08-25T21:18:47.966Z,100656.09
2022-08-25T21:21:16.591Z,100659.03
2022-08-25T21:23:45.547Z,100661.03
2022-08-25T21:26:17.583Z,100648.84
2022-08-25T21:28:47.834Z,100648.66
2022-08-25T21:31:15.221Z,100648.41
2022-08-25T21:33:42.854Z,100643.53
2022-08-25T21:36:11.028Z,100644.75
2022-08-25T21:38:38.199Z,100643.00
2022-08-25T21:41:11.456Z,100644.84
2022-08-25T21:43:38.210Z,100642.03
2022-08-25T21:46:06.233Z,100646.69
2022-08-25T21:48:33.850Z,100648.84
2022-08-25T21:51:12.802Z,100653.09
2022-08-25T21:53:39.817Z,100644.53
2022-08-25T21:56:09.954Z,100643.78
2022-08-25T21:58:37.894Z,100648.75
2022-08-25T22:01:10.944Z,100656.88
2022-08-25T22:03:39.011Z,100646.34
2022-08-25T22:06:09.189Z,100645.34
2022-08-25T22:08:37.951Z,100637.56
2022-08-25T22:11:06.030Z,100644.50
2022-08-25T22:13:34.239Z,100637.91
2022-08-25T22:16:01.012Z,100640.28
2022-08-25T22:18:28.401Z,100636.47
2022-08-25T22:20:54.952Z,100638.13
2022-08-25T22:23:22.665Z,100630.78
2022-08-25T22:25:55.389Z,100628.94
2022-08-25T22:28:22.622Z,100622.19
2022-08-25T22:30:49.827Z,100627.38
2022-08-25T22:33:17.774Z,100621.09
2022-08-25T22:35:44.625Z,100624.25
2022-08-25T22:38:12.588Z,100627.81
2022-08-25T22:40:40.519Z,100616.91
2022-08-25T22:43:10.855Z,100627.03
2022-08-25T22:45:37.653Z,100633.84
2022-08-25T22:48:05.500Z,100634.63
2022-08-25T22:50:35.105Z,100633.19
2022-08-25T22:53:01.793Z,100636.81
2022-08-25T22:55:28.519Z,100634.63
2022-08-25T22:57:55.233Z,100635.88
2022-08-25T23:00:22.155Z,100627.50
2022-08-25T23:02:53.019Z,100631.38
2022-08-25T23:05:19.811Z,100641.06
2022-08-25T23:07:47.556Z,100625.94
2022-08-25T23:10:14.356Z,100630.47
2022-08-25T23:12:42.699Z,100638.72
2022-08-25T23:15:11.837Z,100626.38
2022-08-25T23:17:38.420Z,100629.09
2022-08-25T23:20:27.020Z,100628.53
2022-08-25T23:22:54.395Z,100626.72
2022-08-25T23:25:21.843Z,100625.25
2022-08-25T23:27:48.392Z,100618.34
2022-08-25T23:30:18.741Z,100611.09
2022-08-25T23:32:47.842Z,100610.41
2022-08-25T23:35:14.612Z,100610.84
2022-08-25T23:37:41.072Z,100603.09
2022-08-25T23:40:10.849Z,100607.84
2022-08-25T23:42:37.388Z,100608.38
2022-08-25T23:45:04.162Z,100605.59
2022-08-25T23:47:30.691Z,100598.13
2022-08-25T23:49:58.924Z,100593.06
2022-08-25T23:52:27.244Z,100591.75
2022-08-25T23:54:54.210Z,100588.19
2022-08-25T23:57:20.651Z,100592.34
2022-08-25T23:59:48.872Z,100593.31
